createdAt,value
2023-03-08T00:01:02.459Z,2.08
2023-03-08T00:03:29.261Z,2.10
2023-03-08T00:05:55.834Z,2.38
2023-03-08T00:08:22.431Z,2.00
2023-03-08T00:10:49.381Z,1.92
2023-03-08T00:13:15.984Z,2.00
2023-03-08T00:15:42.572Z,2.22
2023-03-08T00:18:09.467Z,2.40
2023-03-08T00:20:36.167Z,1.92
2023-03-08T00:23:02.875Z,1.90
2023-03-08T00:25:30.034Z,1.92
2023-03-08T00:27:56.634Z,2.40
2023-03-08T00:30:23.274Z,2.40
2023-03-08T00:32:49.968Z,2.38
2023-03-08T00:35:16.676Z,2.20
2023-03-08T00:37:43.269Z,2.33
2023-03-08T00:40:10.473Z,2.33
2023-03-08T00:42:37.069Z,2.03
2023-03-08T00:45:03.850Z,2.95
2023-03-08T00:47:30.732Z,2.03
2023-03-08T00:49:58.001Z,1.90
2023-03-08T00:52:24.597Z,2.00
2023-03-08T00:54:54.026Z,2.15
2023-03-08T00:57:20.661Z,2.10
2023-03-08T00:59:47.219Z,1.98
2023-03-08T01:02:14.100Z,2.20
2023-03-08T01:04:40.697Z,2.03
2023-03-08T01:07:07.326Z,1.95
2023-03-08T01:09:33.984Z,2.03
2023-03-08T01:12:00.592Z,2.15
2023-03-08T01:14:27.211Z,2.63
2023-03-08T01:16:53.876Z,2.30
2023-03-08T01:19:20.715Z,2.17
2023-03-08T01:21:47.265Z,2.58
2023-03-08T01:24:14.030Z,2.10
2023-03-08T01:26:40.615Z,2.10
2023-03-08T01:29:07.158Z,2.40
2023-03-08T01:31:33.959Z,2.00
2023-03-08T01:34:00.745Z,2.10
2023-03-08T01:36:28.718Z,1.83
2023-03-08T01:38:55.575Z,2.25
2023-03-08T01:41:28.575Z,2.03
2023-03-08T01:43:55.995Z,2.35
2023-03-08T01:46:29.871Z,2.10
2023-03-08T01:49:17.912Z,2.15
2023-03-08T01:51:49.089Z,2.47
2023-03-08T01:54:28.451Z,1.88
2023-03-08T01:57:01.043Z,2.28
2023-03-08T01:59:29.951Z,2.28
2023-03-08T02:01:56.596Z,2.10
2023-03-08T02:04:23.208Z,2.38
2023-03-08T02:06:50.022Z,2.00
2023-03-08T02:09:16.700Z,2.20
2023-03-08T02:11:43.722Z,1.95
2023-03-08T02:14:10.643Z,2.10
2023-03-08T02:16:38.302Z,2.15
2023-03-08T02:19:11.264Z,1.88
2023-03-08T02:21:37.978Z,1.90
2023-03-08T02:24:21.140Z,1.95
2023-03-08T02:26:48.555Z,1.90
2023-03-08T02:29:15.349Z,1.90
2023-03-08T02:31:42.054Z,2.20
2023-03-08T02:34:08.857Z,2.22
2023-03-08T02:36:35.734Z,2.15
2023-03-08T02:39:02.372Z,2.47
2023-03-08T02:41:29.074Z,2.20
2023-03-08T02:43:55.675Z,2.30
2023-03-08T02:46:22.570Z,2.15
2023-03-08T02:48:50.787Z,2.40
2023-03-08T02:51:17.365Z,2.17
2023-03-08T02:53:43.995Z,2.30
2023-03-08T02:56:10.636Z,2.00
2023-03-08T02:58:37.220Z,2.10
2023-03-08T03:01:03.983Z,2.20
2023-03-08T03:03:31.443Z,2.00
2023-03-08T03:05:58.192Z,2.10
2023-03-08T03:08:24.815Z,2.10
2023-03-08T03:10:51.546Z,1.90
2023-03-08T03:13:18.176Z,2.28
2023-03-08T03:15:44.867Z,2.13
2023-03-08T03:18:11.492Z,1.83
2023-03-08T03:20:38.083Z,1.98
2023-03-08T03:23:04.744Z,2.10
2023-03-08T03:25:31.342Z,1.98
2023-03-08T03:27:57.943Z,2.25
2023-03-08T03:30:24.601Z,2.33
2023-03-08T03:32:51.325Z,2.20
2023-03-08T03:35:18.040Z,2.05
2023-03-08T03:37:44.732Z,1.90
2023-03-08T03:40:12.396Z,2.00
2023-03-08T03:42:38.951Z,2.22
2023-03-08T03:45:06.110Z,2.10
2023-03-08T03:47:32.661Z,2.08
2023-03-08T03:49:59.288Z,2.00
2023-03-08T03:52:25.924Z,2.83
2023-03-08T03:54:52.569Z,2.30
2023-03-08T03:57:20.449Z,2.10
2023-03-08T03:59:47.142Z,1.95
2023-03-08T04:02:13.731Z,2.00
2023-03-08T04:04:40.348Z,2.00
2023-03-08T04:07:07.032Z,2.10
2023-03-08T04:09:33.608Z,1.90
2023-03-08T04:12:02.642Z,2.17
2023-03-08T04:14:29.235Z,2.00
2023-03-08T04:16:55.899Z,2.20
2023-03-08T04:19:22.648Z,2.10
2023-03-08T04:21:49.401Z,2.00
2023-03-08T04:24:16.018Z,1.92
2023-03-08T04:26:42.607Z,2.08
2023-03-08T04:29:09.234Z,1.73
2023-03-08T04:31:36.932Z,2.08
2023-03-08T04:34:04.219Z,1.77
2023-03-08T04:36:30.965Z,2.10
2023-03-08T04:38:58.069Z,2.10
2023-03-08T04:41:25.199Z,2.08
2023-03-08T04:43:54.591Z,1.90
2023-03-08T04:46:26.691Z,2.05
2023-03-08T04:48:55.646Z,2.10
2023-03-08T04:51:24.681Z,2.00
2023-03-08T04:53:51.425Z,2.00
2023-03-08T04:56:18.740Z,2.10
2023-03-08T04:58:45.484Z,2.50
2023-03-08T06:03:42.483Z,5.32
2023-03-08T06:06:09.204Z,5.57
2023-03-08T06:08:36.066Z,5.78
2023-03-08T06:11:03.000Z,5.30
2023-03-08T06:13:30.060Z,5.93
2023-03-08T06:15:58.190Z,4.90
2023-03-08T06:18:25.385Z,5.03
2023-03-08T06:21:16.832Z,6.03
2023-03-08T06:23:45.528Z,5.32
2023-03-08T06:26:12.771Z,5.05
2023-03-08T06:28:42.751Z,5.03
2023-03-08T06:31:13.366Z,4.85
2023-03-08T06:33:40.386Z,5.45
2023-03-08T06:36:13.001Z,5.63
2023-03-08T06:38:41.489Z,5.38
2023-03-08T06:41:10.293Z,5.50
2023-03-08T06:43:37.103Z,5.32
2023-03-08T06:46:09.082Z,6.00
2023-03-08T06:48:36.908Z,5.75
2023-03-08T06:51:05.009Z,5.70
2023-03-08T06:53:32.124Z,5.40
2023-03-08T06:55:59.116Z,6.03
2023-03-08T06:58:25.694Z,6.80
2023-03-08T07:00:54.365Z,7.03
2023-03-08T07:03:21.054Z,7.07
2023-03-08T07:05:47.656Z,7.22
2023-03-08T07:08:14.406Z,7.35
2023-03-08T07:10:41.092Z,7.35
2023-03-08T07:13:07.702Z,7.05
2023-03-08T07:15:34.435Z,6.85
2023-03-08T07:18:01.122Z,6.90
2023-03-08T07:20:27.968Z,6.45
2023-03-08T07:22:54.855Z,6.95
2023-03-08T07:25:21.903Z,6.72
2023-03-08T07:27:48.730Z,6.63
2023-03-08T07:30:16.278Z,5.97
2023-03-08T07:32:43.192Z,6.95
2023-03-08T07:35:11.636Z,6.55
2023-03-08T07:37:38.563Z,7.05
2023-03-08T07:40:06.940Z,6.80
2023-03-08T07:42:33.886Z,6.88
2023-03-08T07:45:03.717Z,7.05
2023-03-08T07:47:31.649Z,6.88
2023-03-08T07:49:58.555Z,6.35
2023-03-08T07:52:29.462Z,6.18
2023-03-08T07:54:56.770Z,6.55
2023-03-08T07:57:23.885Z,6.05
2023-03-08T07:59:53.417Z,7.15
2023-03-08T08:02:20.748Z,6.13
2023-03-08T08:04:47.451Z,5.80
2023-03-08T08:07:16.494Z,6.10
2023-03-08T08:09:43.262Z,6.05
2023-03-08T08:12:10.075Z,6.40
2023-03-08T08:14:36.857Z,6.55
2023-03-08T08:17:03.826Z,6.35
2023-03-08T08:19:32.025Z,5.78
2023-03-08T08:21:59.161Z,7.18
2023-03-08T08:24:26.293Z,5.93
2023-03-08T08:26:53.302Z,7.35
2023-03-08T08:29:20.173Z,5.45
2023-03-08T08:31:46.998Z,5.53
2023-03-08T08:34:13.949Z,5.03
2023-03-08T08:36:40.730Z,5.47
2023-03-08T08:39:07.396Z,5.80
2023-03-08T08:41:34.072Z,5.75
2023-03-08T08:44:00.971Z,5.28
2023-03-08T08:46:28.630Z,5.65
2023-03-08T08:48:57.636Z,5.75
2023-03-08T08:51:24.611Z,5.45
2023-03-08T08:53:51.354Z,5.00
2023-03-08T08:56:27.265Z,5.72
2023-03-08T08:59:00.608Z,6.68
2023-03-08T09:01:31.402Z,5.65
2023-03-08T09:03:59.408Z,5.93
2023-03-08T09:06:27.933Z,4.88
2023-03-08T09:08:57.484Z,5.03
2023-03-08T09:11:25.462Z,5.68
2023-03-08T09:13:53.318Z,5.45
2023-03-08T09:16:28.632Z,5.20
2023-03-08T09:18:56.974Z,4.70
2023-03-08T09:21:24.881Z,5.15
2023-03-08T09:23:52.136Z,4.93
2023-03-08T09:26:19.190Z,5.93
2023-03-08T09:28:46.117Z,5.32
2023-03-08T09:31:18.753Z,6.35
2023-03-08T09:33:48.698Z,4.53
2023-03-08T09:36:15.755Z,4.10
2023-03-08T09:38:42.913Z,4.45
2023-03-08T09:41:27.919Z,3.83
2023-03-08T09:43:57.486Z,4.50
2023-03-08T09:46:31.258Z,4.43
2023-03-08T09:49:01.198Z,4.13
2023-03-08T09:51:37.764Z,4.05
2023-03-08T09:54:11.299Z,3.65
2023-03-08T09:56:46.107Z,3.88
2023-03-08T09:59:19.720Z,3.75
2023-03-08T10:02:17.331Z,4.50
2023-03-08T10:05:12.188Z,3.22
2023-03-08T10:08:01.495Z,3.00
2023-03-08T10:10:28.039Z,2.83
2023-03-08T10:13:19.078Z,3.47
2023-03-08T10:15:50.592Z,4.63
2023-03-08T10:18:21.899Z,3.55
2023-03-08T10:20:49.059Z,3.50
2023-03-08T10:23:19.442Z,2.97
2023-03-08T10:25:47.987Z,2.90
2023-03-08T10:28:16.128Z,3.00
2023-03-08T10:31:04.553Z,2.50
2023-03-08T10:33:36.261Z,2.08
2023-03-08T10:36:06.501Z,1.50
2023-03-08T10:38:35.405Z,2.20
2023-03-08T10:41:16.574Z,2.08
2023-03-08T10:43:49.412Z,2.15
2023-03-08T10:46:22.853Z,2.80
2023-03-08T10:48:49.848Z,2.40
2023-03-08T10:51:27.760Z,2.28
2023-03-08T10:54:03.464Z,2.00
2023-03-08T10:56:38.574Z,2.38
2023-03-08T10:59:15.828Z,2.75
2023-03-08T11:01:54.708Z,2.30
2023-03-08T11:04:23.718Z,2.55
2023-03-08T11:06:50.728Z,2.58
2023-03-08T11:09:22.354Z,2.75
2023-03-08T11:11:49.052Z,2.63
2023-03-08T11:14:16.265Z,2.63
2023-03-08T11:17:05.041Z,2.63
2023-03-08T11:19:35.190Z,2.47
2023-03-08T11:22:07.939Z,2.40
2023-03-08T11:24:53.041Z,2.65
2023-03-08T11:27:44.242Z,2.20
2023-03-08T11:30:28.030Z,2.47
2023-03-08T11:33:34.304Z,1.98
2023-03-08T11:36:12.665Z,1.90
2023-03-08T11:38:39.749Z,2.40
2023-03-08T11:41:14.738Z,1.88
2023-03-08T11:44:00.172Z,2.30
2023-03-08T11:46:41.966Z,2.50
2023-03-08T11:49:33.980Z,2.22
2023-03-08T11:52:00.586Z,2.40
2023-03-08T11:54:52.623Z,2.60
2023-03-08T11:57:20.285Z,2.30
2023-03-08T11:59:50.074Z,2.42
2023-03-08T12:02:30.545Z,1.85
2023-03-08T12:05:12.151Z,2.47
2023-03-08T12:07:45.274Z,2.42
2023-03-08T12:10:29.668Z,2.40
2023-03-08T12:13:23.345Z,2.72
2023-03-08T12:16:01.788Z,2.42
2023-03-08T12:18:34.586Z,2.10
2023-03-08T12:21:34.360Z,1.80
2023-03-08T12:24:26.813Z,2.20
2023-03-08T12:27:02.194Z,2.28
2023-03-08T12:29:37.623Z,2.28
2023-03-08T12:32:05.888Z,2.08
2023-03-08T12:34:35.788Z,2.72
2023-03-08T12:37:02.693Z,2.22
2023-03-08T12:39:36.890Z,2.10
2023-03-08T12:42:09.990Z,2.15
2023-03-08T12:44:37.806Z,2.30
2023-03-08T12:47:13.761Z,2.63
2023-03-08T12:49:45.023Z,2.38
2023-03-08T12:52:17.688Z,2.10
2023-03-08T12:54:56.378Z,2.20
2023-03-08T12:57:28.574Z,1.50
2023-03-08T12:59:58.761Z,2.00
2023-03-08T13:02:28.507Z,2.00
2023-03-08T13:05:28.536Z,2.20
2023-03-08T13:08:07.316Z,2.38
2023-03-08T13:10:38.475Z,2.25
2023-03-08T13:13:20.464Z,2.50
2023-03-08T13:16:20.556Z,2.40
2023-03-08T13:18:49.877Z,2.95
2023-03-08T13:21:35.406Z,3.22
2023-03-08T13:24:22.645Z,3.03
2023-03-08T13:27:09.085Z,3.10
2023-03-08T13:29:36.403Z,3.00
2023-03-08T13:32:18.281Z,3.08
2023-03-08T13:34:47.102Z,2.40
2023-03-08T13:37:25.152Z,2.10
2023-03-08T13:39:57.365Z,1.88
2023-03-08T13:42:25.879Z,1.88
2023-03-08T13:44:54.021Z,2.08
2023-03-08T13:47:30.454Z,1.88
2023-03-08T13:49:58.749Z,2.25
2023-03-08T13:52:31.378Z,2.30
2023-03-08T13:55:05.438Z,2.30
2023-03-08T13:57:36.554Z,2.47
2023-03-08T14:00:28.456Z,3.10
2023-03-08T14:02:57.644Z,2.28
2023-03-08T14:05:28.576Z,2.35
2023-03-08T14:08:04.163Z,3.08
2023-03-08T14:10:39.083Z,2.47
2023-03-08T14:13:14.746Z,2.47
2023-03-08T14:15:58.845Z,2.90
2023-03-08T14:18:34.671Z,2.47
2023-03-08T14:21:05.370Z,1.70
2023-03-08T14:23:38.215Z,1.95
2023-03-08T14:26:07.742Z,2.00
2023-03-08T14:28:41.391Z,1.80
2023-03-08T14:31:28.695Z,2.63
2023-03-08T14:34:01.773Z,2.00
2023-03-08T14:36:30.534Z,2.30
2023-03-08T14:39:01.657Z,2.60
2023-03-08T14:41:36.585Z,2.30
2023-03-08T14:44:05.046Z,2.13
2023-03-08T14:46:32.042Z,2.30
2023-03-08T14:49:22.359Z,2.10
2023-03-08T14:51:49.794Z,2.30
2023-03-08T14:54:38.594Z,2.50
2023-03-08T14:57:17.367Z,2.17
2023-03-08T14:59:44.505Z,2.38
2023-03-08T15:02:13.334Z,2.50
2023-03-08T15:04:40.946Z,2.50
2023-03-08T15:07:14.864Z,2.80
2023-03-08T15:09:41.577Z,2.63
2023-03-08T15:12:09.474Z,2.72
2023-03-08T15:14:36.609Z,3.50
2023-03-08T15:17:03.686Z,4.70
2023-03-08T15:19:30.294Z,14.80
2023-03-08T15:21:57.181Z,18.67
2023-03-08T15:24:23.920Z,47.20
2023-03-08T15:26:52.727Z,4.07
2023-03-08T15:29:28.936Z,22.42
2023-03-08T15:31:56.149Z,11.68
2023-03-08T15:34:23.422Z,5.30
2023-03-08T15:36:51.469Z,4.93
2023-03-08T15:39:19.453Z,4.30
2023-03-08T15:41:47.118Z,4.25
2023-03-08T15:44:14.045Z,13.35
2023-03-08T15:46:40.801Z,6.03
2023-03-08T15:49:07.528Z,5.40
2023-03-08T15:51:36.419Z,18.08
2023-03-08T15:54:05.611Z,6.30
2023-03-08T15:56:32.495Z,3.78
2023-03-08T15:58:59.380Z,4.05
2023-03-08T16:01:27.302Z,4.03
2023-03-08T16:03:55.730Z,3.88
2023-03-08T16:06:23.334Z,3.80
2023-03-08T16:08:49.900Z,4.38
2023-03-08T16:11:20.517Z,3.30
2023-03-08T16:13:49.280Z,6.20
2023-03-08T16:16:16.218Z,3.75
2023-03-08T16:18:44.718Z,3.15
2023-03-08T16:21:11.859Z,3.20
2023-03-08T16:23:41.695Z,4.13
2023-03-08T16:26:16.945Z,4.53
2023-03-08T16:28:47.042Z,3.28
2023-03-08T16:31:15.199Z,4.40
2023-03-08T16:33:41.987Z,3.72
2023-03-08T16:36:08.847Z,2.25
2023-03-08T16:38:35.952Z,2.92
2023-03-08T16:41:12.547Z,2.60
2023-03-08T16:43:47.406Z,3.58
2023-03-08T16:46:17.171Z,3.08
2023-03-08T16:48:44.054Z,4.72
2023-03-08T16:51:14.415Z,3.50
2023-03-08T16:53:41.170Z,3.83
2023-03-08T16:56:07.879Z,4.50
2023-03-08T16:58:34.648Z,4.57
2023-03-08T17:01:01.548Z,4.50
2023-03-08T17:03:28.454Z,4.40
2023-03-08T17:05:55.072Z,4.72
2023-03-08T17:08:21.971Z,4.18
2023-03-08T17:10:48.724Z,9.13
2023-03-08T17:13:15.316Z,6.85
2023-03-08T17:15:44.041Z,5.15
2023-03-08T17:18:11.122Z,4.10
2023-03-08T17:20:41.855Z,5.88
2023-03-08T17:23:11.138Z,4.28
2023-03-08T17:25:41.134Z,4.00
2023-03-08T17:28:08.820Z,4.63
2023-03-08T17:30:36.628Z,3.55
2023-03-08T17:33:03.347Z,4.63
2023-03-08T17:35:30.432Z,3.92
2023-03-08T17:37:57.437Z,4.03
2023-03-08T17:40:24.455Z,4.68
2023-03-08T17:42:51.233Z,5.43
2023-03-08T17:45:18.779Z,15.00
2023-03-08T17:47:45.712Z,20.85
2023-03-08T17:50:15.351Z,23.77
2023-03-08T17:52:42.472Z,9.13
2023-03-08T17:55:12.038Z,6.45
2023-03-08T17:57:38.815Z,4.75
2023-03-08T18:00:06.491Z,9.15
2023-03-08T18:02:33.487Z,7.35
2023-03-08T18:05:00.189Z,8.25
2023-03-08T18:07:29.200Z,6.20
2023-03-08T18:09:56.102Z,6.40
2023-03-08T18:12:23.102Z,5.72
2023-03-08T18:14:52.698Z,6.20
2023-03-08T18:17:21.677Z,6.93
2023-03-08T18:19:48.683Z,8.05
2023-03-08T18:22:16.317Z,8.80
2023-03-08T18:24:43.060Z,8.07
2023-03-08T18:27:09.770Z,7.90
2023-03-08T18:29:36.981Z,9.05
2023-03-08T18:32:04.928Z,10.55
2023-03-08T18:34:31.586Z,8.48
2023-03-08T18:36:58.935Z,7.68
2023-03-08T18:39:25.964Z,9.93
2023-03-08T18:41:56.653Z,11.63
2023-03-08T18:46:51.017Z,8.55
2023-03-08T18:49:18.221Z,7.68
2023-03-08T18:51:45.227Z,6.30
2023-03-08T18:54:17.446Z,6.72
2023-03-08T18:56:44.615Z,6.35
2023-03-08T18:59:13.577Z,6.78
2023-03-08T19:01:40.856Z,6.18
2023-03-08T19:04:08.105Z,7.35
2023-03-08T19:06:36.375Z,6.65
2023-03-08T19:09:15.101Z,6.63
2023-03-08T19:11:42.321Z,7.38
2023-03-08T19:14:11.453Z,7.53
2023-03-08T19:16:38.135Z,7.88
2023-03-08T19:19:13.364Z,8.35
2023-03-08T19:21:45.060Z,8.80
2023-03-08T19:24:13.359Z,9.25
2023-03-08T19:26:43.072Z,8.18
2023-03-08T19:29:22.940Z,9.97
2023-03-08T19:31:53.917Z,10.00
2023-03-08T19:34:26.586Z,9.88
2023-03-08T19:36:53.498Z,11.02
2023-03-08T19:39:23.540Z,10.20
2023-03-08T19:41:51.832Z,10.38
2023-03-08T19:44:19.126Z,9.25
2023-03-08T19:46:46.742Z,9.93
2023-03-08T19:49:16.433Z,9.85
2023-03-08T19:51:43.391Z,9.73
2023-03-08T19:54:10.324Z,8.50
2023-03-08T19:56:36.949Z,7.38
2023-03-08T19:59:04.139Z,7.65
2023-03-08T20:01:31.248Z,7.80
2023-03-08T20:03:58.094Z,7.43
2023-03-08T20:06:34.435Z,7.35
2023-03-08T20:09:02.639Z,7.22
2023-03-08T20:11:29.627Z,7.15
2023-03-08T20:13:56.558Z,7.85
2023-03-08T20:16:24.482Z,7.10
2023-03-08T20:18:51.917Z,7.40
2023-03-08T20:21:20.042Z,8.70
2023-03-08T20:23:49.573Z,7.75
2023-03-08T20:26:16.165Z,7.25
2023-03-08T20:28:43.084Z,8.15
2023-03-08T20:31:13.086Z,7.30
2023-03-08T20:33:40.080Z,8.45
2023-03-08T20:36:07.439Z,7.63
2023-03-08T20:38:34.087Z,7.45
2023-03-08T20:41:21.759Z,8.35
2023-03-08T20:43:50.682Z,7.60
2023-03-08T20:46:19.559Z,7.40
2023-03-08T20:48:46.770Z,6.97
2023-03-08T20:51:16.117Z,7.50
2023-03-08T20:53:43.946Z,8.55
2023-03-08T20:56:14.928Z,8.07
2023-03-08T20:58:42.084Z,7.40
2023-03-08T21:01:12.136Z,8.00
2023-03-08T21:03:39.339Z,7.25
2023-03-08T21:06:14.036Z,6.90
2023-03-08T21:08:41.301Z,8.20
2023-03-08T21:11:08.003Z,7.65
2023-03-08T21:13:34.667Z,7.93
2023-03-08T21:16:06.424Z,8.00
2023-03-08T21:18:33.096Z,8.48
2023-03-08T21:20:59.855Z,7.93
2023-03-08T21:23:26.829Z,6.97
2023-03-08T21:25:54.320Z,8.18
2023-03-08T21:28:22.043Z,8.07
2023-03-08T21:30:49.935Z,7.30
2023-03-08T21:33:17.073Z,7.95
2023-03-08T21:35:43.833Z,8.27
2023-03-08T21:38:10.682Z,8.02
2023-03-08T21:40:39.304Z,7.90
2023-03-08T21:43:06.091Z,8.00
2023-03-08T21:45:33.151Z,7.82
2023-03-08T21:47:59.989Z,7.25
2023-03-08T21:50:27.364Z,8.13
2023-03-08T21:52:54.679Z,8.27
2023-03-08T21:55:21.640Z,8.32
2023-03-08T21:57:48.372Z,8.57
2023-03-08T22:00:17.546Z,9.77
2023-03-08T22:02:46.026Z,8.80
2023-03-08T22:05:14.127Z,9.63
2023-03-08T22:07:41.626Z,9.45
2023-03-08T22:10:10.813Z,10.13
2023-03-08T22:12:37.724Z,9.82
2023-03-08T22:15:05.603Z,9.57
2023-03-08T22:17:32.460Z,10.23
2023-03-08T22:19:59.129Z,9.45
2023-03-08T22:22:26.150Z,9.65
2023-03-08T22:24:52.789Z,9.25
2023-03-08T22:27:19.434Z,9.52
2023-03-08T22:29:47.412Z,9.32
2023-03-08T22:32:14.199Z,9.85
2023-03-08T22:34:40.818Z,9.73
2023-03-08T22:37:07.566Z,9.75
2023-03-08T22:39:34.252Z,9.63
2023-03-08T22:42:01.156Z,10.00
2023-03-08T22:44:27.927Z,9.95
2023-03-08T22:46:54.625Z,9.50
2023-03-08T22:49:21.197Z,10.15
2023-03-08T22:51:48.043Z,9.95
2023-03-08T22:54:16.591Z,10.13
2023-03-08T22:56:43.384Z,10.88
2023-03-08T22:59:10.674Z,9.98
2023-03-08T23:01:37.497Z,9.57
2023-03-08T23:04:06.260Z,10.80
2023-03-08T23:06:33.467Z,10.88
2023-03-08T23:09:03.564Z,10.90
2023-03-08T23:11:30.412Z,12.13
2023-03-08T23:13:57.134Z,11.05
2023-03-08T23:16:24.051Z,10.25
2023-03-08T23:18:52.379Z,10.32
2023-03-08T23:21:20.818Z,10.60
2023-03-08T23:23:48.031Z,10.90
2023-03-08T23:26:21.396Z,10.82
2023-03-08T23:28:48.158Z,11.38
2023-03-08T23:31:17.290Z,11.73
2023-03-08T23:33:44.728Z,10.60
2023-03-08T23:36:13.148Z,11.35
2023-03-08T23:38:40.740Z,10.70
2023-03-08T23:41:09.481Z,10.05
2023-03-08T23:43:36.924Z,11.40
2023-03-08T23:46:08.397Z,10.18
2023-03-08T23:48:35.733Z,11.13
2023-03-08T23:51:07.077Z,11.10
2023-03-08T23:53:34.327Z,11.18
2023-03-08T23:56:01.501Z,12.85
2023-03-08T23:58:28.632Z,11.88
